createdAt,value
2023-03-08T00:01:22.432Z,7.01
2023-03-08T00:03:57.485Z,7.22
2023-03-08T00:06:37.224Z,7.19
2023-03-08T00:09:17.085Z,7.33
2023-03-08T00:11:46.459Z,7.35
2023-03-08T00:14:22.025Z,7.27
2023-03-08T00:16:51.034Z,7.47
2023-03-08T00:19:20.768Z,7.48
2023-03-08T00:21:57.632Z,7.40
2023-03-08T00:24:32.262Z,7.40
2023-03-08T00:27:12.817Z,7.48
2023-03-08T00:29:42.732Z,7.43
2023-03-08T00:32:25.015Z,7.41
2023-03-08T00:34:56.880Z,7.54
2023-03-08T00:37:27.320Z,7.41
2023-03-08T00:40:05.951Z,7.42
2023-03-08T00:42:44.916Z,7.37
2023-03-08T00:45:18.815Z,7.34
2023-03-08T00:47:54.565Z,7.38
2023-03-08T00:50:24.433Z,7.50
2023-03-08T00:52:53.855Z,7.36
2023-03-08T00:55:28.843Z,7.37
2023-03-08T00:58:02.434Z,7.38
2023-03-08T01:00:33.087Z,7.41
2023-03-08T01:03:13.144Z,7.27
2023-03-08T01:05:46.136Z,7.35
2023-03-08T01:08:19.626Z,7.18
2023-03-08T01:10:56.002Z,7.26
2023-03-08T01:13:27.418Z,7.22
2023-03-08T01:15:59.456Z,7.27
2023-03-08T01:18:29.641Z,7.29
2023-03-08T01:21:07.329Z,7.12
2023-03-08T01:23:45.599Z,7.35
2023-03-08T01:26:26.835Z,7.27
2023-03-08T01:29:01.406Z,7.12
2023-03-08T01:31:31.776Z,7.12
2023-03-08T01:34:02.334Z,7.08
2023-03-08T01:36:34.092Z,7.07
2023-03-08T01:39:05.815Z,7.05
2023-03-08T01:41:52.219Z,7.04
2023-03-08T01:44:24.702Z,7.00
2023-03-08T01:47:01.026Z,7.07
2023-03-08T01:49:50.036Z,7.08
2023-03-08T01:52:23.566Z,7.08
2023-03-08T01:54:56.916Z,6.99
2023-03-08T01:57:39.881Z,6.97
2023-03-08T02:00:22.981Z,6.86
2023-03-08T02:03:04.901Z,6.89
2023-03-08T02:05:35.990Z,7.01
2023-03-08T02:08:19.597Z,6.93
2023-03-08T02:10:50.541Z,6.87
2023-03-08T02:13:28.819Z,6.81
2023-03-08T02:15:59.708Z,6.85
2023-03-08T02:18:35.988Z,6.94
2023-03-08T02:21:07.147Z,6.85
2023-03-08T02:23:45.482Z,6.94
2023-03-08T02:26:14.983Z,6.85
2023-03-08T02:28:46.079Z,6.84
2023-03-08T02:31:24.367Z,6.76
2023-03-08T02:33:56.950Z,6.79
2023-03-08T02:36:30.442Z,7.00
2023-03-08T02:39:11.500Z,6.78
2023-03-08T02:41:42.913Z,6.81
2023-03-08T02:44:13.432Z,6.72
2023-03-08T02:46:42.172Z,6.67
2023-03-08T02:49:21.812Z,6.67
2023-03-08T02:51:56.172Z,6.81
2023-03-08T02:54:39.167Z,6.83
2023-03-08T02:57:18.356Z,6.81
2023-03-08T02:59:53.908Z,6.58
2023-03-08T03:02:32.884Z,6.68
2023-03-08T03:05:15.894Z,6.80
2023-03-08T03:07:45.233Z,6.84
2023-03-08T03:10:33.654Z,6.75
2023-03-08T03:13:06.610Z,6.83
2023-03-08T03:15:38.984Z,6.79
2023-03-08T03:18:16.069Z,6.76
2023-03-08T03:20:52.715Z,6.78
2023-03-08T03:23:24.293Z,6.82
2023-03-08T03:25:57.850Z,6.81
2023-03-08T03:28:28.376Z,6.62
2023-03-08T03:31:00.356Z,6.68
2023-03-08T03:33:36.624Z,6.80
2023-03-08T03:36:15.002Z,6.71
2023-03-08T03:38:45.614Z,6.67
2023-03-08T03:41:22.533Z,6.77
2023-03-08T03:43:56.283Z,6.74
2023-03-08T03:46:32.043Z,6.84
2023-03-08T03:49:07.281Z,6.75
2023-03-08T03:51:48.783Z,6.84
2023-03-08T03:54:34.934Z,6.83
2023-03-08T03:57:16.757Z,6.82
2023-03-08T03:59:48.592Z,6.79
2023-03-08T04:02:18.514Z,6.81
2023-03-08T04:04:59.301Z,6.84
2023-03-08T04:07:38.566Z,6.79
2023-03-08T04:10:15.259Z,6.83
2023-03-08T04:12:50.116Z,6.89
2023-03-08T04:15:25.848Z,6.81
2023-03-08T04:18:01.225Z,6.82
2023-03-08T04:20:34.140Z,6.88
2023-03-08T04:23:08.842Z,6.99
2023-03-08T04:25:42.266Z,6.94
2023-03-08T04:28:25.358Z,6.96
2023-03-08T04:30:57.439Z,6.98
2023-03-08T04:33:27.533Z,6.96
2023-03-08T04:35:56.311Z,7.04
2023-03-08T04:38:29.412Z,7.05
2023-03-08T04:41:07.693Z,6.97
2023-03-08T04:43:52.679Z,6.94
2023-03-08T04:46:30.397Z,6.94
2023-03-08T04:49:08.794Z,6.99
2023-03-08T04:51:46.191Z,7.00
2023-03-08T04:54:19.756Z,7.00
2023-03-08T04:57:00.913Z,7.02
2023-03-08T04:59:33.267Z,6.88
2023-03-08T05:02:07.628Z,6.98
2023-03-08T05:04:42.103Z,6.99
2023-03-08T05:07:13.786Z,6.89
2023-03-08T05:09:45.508Z,6.91
2023-03-08T05:12:20.855Z,6.84
2023-03-08T05:15:05.318Z,6.89
2023-03-08T05:17:36.819Z,6.77
2023-03-08T05:20:17.909Z,6.98
2023-03-08T05:22:58.287Z,6.91
2023-03-08T05:25:39.950Z,6.94
2023-03-08T05:28:16.991Z,6.98
2023-03-08T05:30:54.412Z,6.91
2023-03-08T05:33:24.224Z,7.09
2023-03-08T05:36:04.164Z,6.82
2023-03-08T05:38:41.778Z,6.63
2023-03-08T05:41:21.348Z,6.94
2023-03-08T05:43:58.634Z,6.97
2023-03-08T05:46:34.576Z,7.00
2023-03-08T05:49:07.194Z,6.94
2023-03-08T05:51:42.372Z,6.72
2023-03-08T05:54:17.414Z,6.66
2023-03-08T05:56:49.326Z,7.09
2023-03-08T05:59:29.217Z,6.81
2023-03-08T06:02:06.337Z,7.06
2023-03-08T06:04:50.238Z,7.05
2023-03-08T06:07:29.988Z,6.99
2023-03-08T06:10:19.367Z,7.10
2023-03-08T06:12:48.339Z,7.12
2023-03-08T06:15:28.448Z,6.98
2023-03-08T06:18:02.789Z,7.11
2023-03-08T06:20:35.194Z,7.28
2023-03-08T06:23:07.272Z,7.16
2023-03-08T06:25:36.942Z,7.14
2023-03-08T06:28:06.431Z,7.16
2023-03-08T06:30:40.306Z,7.23
2023-03-08T06:33:18.307Z,7.25
2023-03-08T06:35:57.757Z,7.22
2023-03-08T06:38:31.785Z,7.29
2023-03-08T06:41:15.678Z,7.44
2023-03-08T06:44:12.091Z,7.43
2023-03-08T06:46:46.172Z,7.48
2023-03-08T06:49:21.099Z,7.73
2023-03-08T06:51:53.192Z,7.55
2023-03-08T06:54:24.426Z,7.51
2023-03-08T06:57:00.076Z,7.50
2023-03-08T06:59:32.699Z,7.71
2023-03-08T07:02:14.417Z,7.69
2023-03-08T07:04:51.254Z,7.57
2023-03-08T07:07:19.917Z,7.67
2023-03-08T07:09:51.151Z,7.54
2023-03-08T07:12:19.505Z,7.71
2023-03-08T07:14:48.017Z,7.73
2023-03-08T07:17:17.418Z,7.90
2023-03-08T07:19:52.793Z,7.97
2023-03-08T07:22:32.863Z,7.94
2023-03-08T07:25:03.551Z,8.05
2023-03-08T07:27:33.549Z,8.13
2023-03-08T07:30:05.144Z,8.15
2023-03-08T07:32:34.457Z,8.25
2023-03-08T07:35:08.930Z,8.23
2023-03-08T07:37:40.612Z,8.18
2023-03-08T07:40:16.831Z,8.40
2023-03-08T07:42:48.335Z,8.53
2023-03-08T07:45:39.005Z,8.59
2023-03-08T07:48:11.208Z,8.56
2023-03-08T07:50:51.126Z,8.59
2023-03-08T07:53:31.660Z,8.74
2023-03-08T07:56:05.614Z,8.63
2023-03-08T07:58:39.549Z,8.78
2023-03-08T08:01:10.475Z,8.83
2023-03-08T08:03:49.233Z,8.71
2023-03-08T08:06:23.491Z,8.77
2023-03-08T08:08:53.622Z,8.82
2023-03-08T08:11:24.619Z,8.76
2023-03-08T08:13:56.474Z,9.00
2023-03-08T08:16:28.032Z,9.19
2023-03-08T08:19:01.496Z,9.29
2023-03-08T08:21:39.451Z,9.26
2023-03-08T08:24:17.718Z,9.36
2023-03-08T08:26:51.536Z,9.55
2023-03-08T08:29:23.935Z,9.54
2023-03-08T08:31:55.408Z,9.64
2023-03-08T08:34:33.533Z,9.62
2023-03-08T08:37:12.370Z,9.43
2023-03-08T08:39:50.705Z,9.45
2023-03-08T08:42:22.782Z,9.58
2023-03-08T08:44:54.062Z,9.88
2023-03-08T08:47:33.725Z,9.72
2023-03-08T08:50:05.501Z,9.76
2023-03-08T08:52:38.490Z,9.91
2023-03-08T08:55:08.743Z,9.76
2023-03-08T08:57:37.809Z,9.85
2023-03-08T09:00:20.761Z,9.87
2023-03-08T09:02:54.495Z,9.86
2023-03-08T09:05:28.613Z,9.97
2023-03-08T09:08:15.648Z,9.91
2023-03-08T09:10:53.154Z,9.93
2023-03-08T09:13:23.221Z,10.02
2023-03-08T09:15:59.328Z,10.12
2023-03-08T09:18:29.236Z,10.03
2023-03-08T09:21:07.871Z,10.18
2023-03-08T09:23:38.775Z,10.13
2023-03-08T09:26:07.741Z,10.17
2023-03-08T09:28:37.365Z,10.19
2023-03-08T09:31:19.866Z,10.32
2023-03-08T09:33:52.336Z,10.40
2023-03-08T09:36:24.797Z,10.38
2023-03-08T09:39:04.179Z,10.48
2023-03-08T09:41:58.581Z,10.57
2023-03-08T09:44:55.774Z,10.51
2023-03-08T09:47:40.607Z,10.57
2023-03-08T09:50:34.950Z,10.66
2023-03-08T09:53:20.213Z,10.72
2023-03-08T09:56:00.057Z,10.95
2023-03-08T09:58:45.371Z,11.02
2023-03-08T10:01:53.266Z,10.94
2023-03-08T10:04:41.188Z,10.93
2023-03-08T10:07:28.569Z,10.88
2023-03-08T10:10:28.296Z,11.11
2023-03-08T10:13:30.670Z,10.82
2023-03-08T10:16:07.208Z,10.71
2023-03-08T10:18:42.746Z,10.72
2023-03-08T10:21:21.093Z,10.73
2023-03-08T10:23:56.440Z,10.74
2023-03-08T10:26:29.953Z,10.74
2023-03-08T10:29:07.309Z,10.68
2023-03-08T10:31:42.392Z,10.71
2023-03-08T10:34:14.415Z,10.71
2023-03-08T10:36:54.836Z,10.75
2023-03-08T10:39:27.974Z,10.79
2023-03-08T10:42:00.697Z,10.75
2023-03-08T10:44:51.310Z,10.72
2023-03-08T10:47:23.035Z,10.70
2023-03-08T10:50:16.540Z,10.87
2023-03-08T10:52:48.499Z,10.79
2023-03-08T10:55:20.573Z,10.98
2023-03-08T10:57:55.146Z,11.01
2023-03-08T11:00:35.398Z,11.08
2023-03-08T11:03:08.972Z,11.19
2023-03-08T11:05:38.744Z,11.05
2023-03-08T11:08:25.046Z,11.19
2023-03-08T11:11:13.080Z,11.20
2023-03-08T11:13:42.945Z,11.35
2023-03-08T11:16:46.429Z,11.44
2023-03-08T11:19:44.654Z,11.55
2023-03-08T11:22:28.520Z,11.61
2023-03-08T11:25:20.835Z,11.74
2023-03-08T11:28:18.360Z,11.59
2023-03-08T11:31:00.340Z,11.69
2023-03-08T11:33:58.243Z,11.54
2023-03-08T11:36:32.694Z,11.55
2023-03-08T11:39:12.853Z,11.64
2023-03-08T11:41:49.278Z,11.61
2023-03-08T11:44:45.225Z,11.53
2023-03-08T11:47:59.389Z,11.59
2023-03-08T11:50:44.612Z,11.48
2023-03-08T11:53:22.832Z,11.36
2023-03-08T11:56:03.083Z,11.30
2023-03-08T11:58:38.182Z,11.41
2023-03-08T12:01:16.241Z,11.44
2023-03-08T12:03:58.740Z,11.24
2023-03-08T12:06:37.353Z,11.26
2023-03-08T12:09:17.320Z,11.25
2023-03-08T12:11:51.492Z,11.17
2023-03-08T12:14:26.336Z,11.27
2023-03-08T12:17:00.759Z,11.15
2023-03-08T12:19:41.118Z,11.12
2023-03-08T12:22:33.779Z,10.94
2023-03-08T12:25:10.709Z,10.82
2023-03-08T12:27:48.171Z,10.88
2023-03-08T12:30:27.456Z,10.76
2023-03-08T12:32:58.569Z,10.99
2023-03-08T12:35:30.608Z,10.90
2023-03-08T12:38:08.014Z,10.88
2023-03-08T12:40:42.115Z,10.80
2023-03-08T12:43:14.293Z,10.85
2023-03-08T12:45:54.234Z,10.86
2023-03-08T12:48:26.168Z,10.63
2023-03-08T12:51:04.281Z,10.63
2023-03-08T12:53:43.234Z,10.53
2023-03-08T12:56:27.438Z,10.87
2023-03-08T12:59:08.147Z,10.57
2023-03-08T13:01:39.125Z,10.73
2023-03-08T13:04:40.387Z,10.56
2023-03-08T13:07:39.520Z,10.52
2023-03-08T13:10:30.203Z,10.56
2023-03-08T13:13:36.690Z,10.52
2023-03-08T13:16:25.467Z,10.40
2023-03-08T13:19:07.499Z,10.61
2023-03-08T13:21:46.105Z,10.77
2023-03-08T13:24:21.441Z,10.72
2023-03-08T13:27:20.153Z,10.77
2023-03-08T13:29:51.909Z,10.75
2023-03-08T13:32:24.824Z,10.76
2023-03-08T13:35:00.504Z,10.62
2023-03-08T13:37:32.195Z,10.81
2023-03-08T13:40:11.031Z,10.80
2023-03-08T13:42:54.152Z,11.14
2023-03-08T13:45:25.341Z,11.12
2023-03-08T13:47:55.838Z,11.12
2023-03-08T13:50:34.909Z,11.18
2023-03-08T13:53:15.802Z,11.13
2023-03-08T13:55:56.799Z,11.04
2023-03-08T13:58:39.873Z,11.07
2023-03-08T14:01:14.643Z,11.36
2023-03-08T14:03:47.935Z,11.32
2023-03-08T14:06:30.134Z,11.48
2023-03-08T14:09:02.197Z,11.53
2023-03-08T14:11:32.496Z,11.47
2023-03-08T14:14:11.047Z,11.48
2023-03-08T14:16:41.968Z,11.36
2023-03-08T14:19:20.800Z,11.44
2023-03-08T14:21:50.010Z,11.48
2023-03-08T14:24:22.017Z,11.46
2023-03-08T14:27:00.899Z,11.46
2023-03-08T14:29:41.537Z,11.36
2023-03-08T14:32:33.167Z,11.31
2023-03-08T14:35:12.151Z,11.40
2023-03-08T14:37:52.133Z,11.30
2023-03-08T14:40:28.238Z,11.27
2023-03-08T14:43:06.458Z,11.27
2023-03-08T14:45:45.684Z,11.29
2023-03-08T14:48:27.327Z,11.31
2023-03-08T14:51:09.478Z,11.25
2023-03-08T14:53:49.997Z,11.37
2023-03-08T14:56:20.862Z,11.43
2023-03-08T14:58:54.130Z,11.54
2023-03-08T15:01:32.084Z,11.61
2023-03-08T15:04:09.871Z,11.62
2023-03-08T15:06:44.462Z,11.69
2023-03-08T15:09:16.120Z,11.81
2023-03-08T15:11:50.111Z,11.88
2023-03-08T15:14:20.906Z,11.99
2023-03-08T15:17:00.801Z,12.11
2023-03-08T15:19:30.074Z,12.17
2023-03-08T15:22:01.628Z,12.20
2023-03-08T15:24:33.445Z,12.14
2023-03-08T15:27:10.966Z,12.04
2023-03-08T15:29:42.776Z,12.02
2023-03-08T15:32:13.691Z,11.99
2023-03-08T15:34:43.632Z,12.00
2023-03-08T15:37:15.869Z,12.01
2023-03-08T15:39:45.176Z,11.98
2023-03-08T15:42:14.966Z,11.97
2023-03-08T15:44:53.653Z,11.97
2023-03-08T15:47:40.021Z,11.90
2023-03-08T15:50:21.083Z,11.80
2023-03-08T15:52:59.930Z,11.83
2023-03-08T15:55:40.964Z,11.85
2023-03-08T15:58:12.144Z,11.75
2023-03-08T16:00:46.236Z,11.81
2023-03-08T16:03:32.336Z,11.81
2023-03-08T16:06:09.822Z,11.79
2023-03-08T16:08:38.473Z,11.78
2023-03-08T16:11:24.182Z,11.77
2023-03-08T16:13:54.230Z,11.69
2023-03-08T16:16:42.325Z,11.68
2023-03-08T16:19:26.072Z,11.67
2023-03-08T16:22:03.140Z,11.65
2023-03-08T16:24:34.510Z,11.70
2023-03-08T16:27:15.711Z,11.76
2023-03-08T16:29:51.760Z,11.84
2023-03-08T16:32:21.717Z,11.80
2023-03-08T16:35:00.751Z,11.81
2023-03-08T16:37:29.786Z,11.72
2023-03-08T16:40:09.450Z,11.71
2023-03-08T16:42:41.994Z,11.66
2023-03-08T16:45:21.578Z,11.63
2023-03-08T16:47:57.988Z,11.57
2023-03-08T16:50:30.553Z,11.55
2023-03-08T16:53:07.521Z,11.55
2023-03-08T16:55:43.311Z,11.51
2023-03-08T16:58:19.709Z,11.46
2023-03-08T17:00:57.311Z,11.48
2023-03-08T17:03:28.409Z,11.46
2023-03-08T17:06:04.700Z,11.45
2023-03-08T17:08:42.784Z,11.45
2023-03-08T17:11:26.206Z,11.42
2023-03-08T17:14:02.323Z,11.41
2023-03-08T17:16:33.437Z,11.49
2023-03-08T17:19:06.534Z,11.46
2023-03-08T17:22:18.055Z,11.39
2023-03-08T17:24:50.659Z,11.39
2023-03-08T17:27:25.402Z,11.37
2023-03-08T17:30:04.311Z,11.33
2023-03-08T17:32:40.231Z,11.37
2023-03-08T17:35:18.481Z,11.36
2023-03-08T17:37:55.108Z,11.40
2023-03-08T17:40:32.761Z,11.36
2023-03-08T17:43:14.386Z,11.25
2023-03-08T17:45:58.184Z,11.25
2023-03-08T17:48:35.810Z,11.24
2023-03-08T17:51:05.121Z,11.25
2023-03-08T17:53:44.333Z,11.23
2023-03-08T17:56:34.676Z,11.25
2023-03-08T17:59:15.212Z,11.27
2023-03-08T18:01:49.466Z,11.18
2023-03-08T18:04:30.254Z,11.15
2023-03-08T18:07:11.511Z,11.12
2023-03-08T18:09:49.560Z,11.09
2023-03-08T18:12:35.922Z,11.14
2023-03-08T18:15:19.424Z,11.07
2023-03-08T18:18:01.356Z,11.04
2023-03-08T18:20:36.778Z,11.02
2023-03-08T18:23:09.158Z,10.94
2023-03-08T18:25:44.851Z,10.90
2023-03-08T18:31:05.521Z,10.96
2023-03-08T18:34:04.085Z,10.91
2023-03-08T18:36:37.810Z,10.92
2023-03-08T18:39:17.177Z,10.82
2023-03-08T18:42:01.141Z,10.82
2023-03-08T18:44:39.051Z,10.85
2023-03-08T18:47:23.899Z,10.78
2023-03-08T18:49:56.708Z,10.75
2023-03-08T18:52:28.607Z,10.85
2023-03-08T18:55:12.228Z,10.78
2023-03-08T18:57:55.792Z,10.84
2023-03-08T19:00:42.579Z,10.82
2023-03-08T19:03:23.879Z,10.69
2023-03-08T19:06:05.748Z,10.77
2023-03-08T19:08:39.050Z,10.82
2023-03-08T19:11:21.045Z,10.87
2023-03-08T19:13:54.810Z,10.95
2023-03-08T19:16:29.888Z,11.20
2023-03-08T19:19:19.062Z,11.01
2023-03-08T19:22:01.109Z,11.03
2023-03-08T19:24:36.901Z,11.13
2023-03-08T19:27:25.753Z,11.04
2023-03-08T19:29:57.230Z,11.09
2023-03-08T19:32:37.949Z,11.11
2023-03-08T19:35:10.527Z,11.11
2023-03-08T19:37:52.898Z,11.06
2023-03-08T19:40:24.933Z,11.20
2023-03-08T19:43:04.378Z,11.17
2023-03-08T19:45:38.526Z,11.23
2023-03-08T19:48:12.776Z,11.41
2023-03-08T19:51:03.882Z,11.25
2023-03-08T19:53:55.881Z,11.37
2023-03-08T19:56:52.321Z,11.32
2023-03-08T19:59:32.742Z,11.40
2023-03-08T20:02:18.364Z,11.37
2023-03-08T20:05:14.320Z,11.33
2023-03-08T20:07:58.190Z,11.46
2023-03-08T20:10:39.612Z,11.20
2023-03-08T20:13:09.650Z,11.24
2023-03-08T20:15:56.492Z,11.32
2023-03-08T20:18:48.438Z,11.26
2023-03-08T20:21:40.550Z,11.16
2023-03-08T20:24:27.587Z,11.21
2023-03-08T20:27:08.959Z,11.15
2023-03-08T20:29:53.648Z,11.16
2023-03-08T20:32:35.508Z,11.29
2023-03-08T20:35:11.445Z,11.25
2023-03-08T20:37:50.681Z,11.16
2023-03-08T20:40:39.726Z,11.13
2023-03-08T20:43:18.038Z,11.05
2023-03-08T20:46:07.588Z,11.02
2023-03-08T20:48:44.017Z,11.36
2023-03-08T20:51:29.272Z,11.16
2023-03-08T20:54:12.731Z,11.12
2023-03-08T20:56:55.248Z,11.04
2023-03-08T20:59:30.981Z,11.05
2023-03-08T21:02:10.299Z,11.13
2023-03-08T21:05:01.058Z,11.18
2023-03-08T21:07:37.030Z,10.99
2023-03-08T21:10:15.163Z,11.04
2023-03-08T21:12:47.116Z,11.14
2023-03-08T21:15:20.795Z,11.11
2023-03-08T21:17:52.850Z,10.98
2023-03-08T21:20:28.458Z,10.90
2023-03-08T21:23:08.121Z,10.93
2023-03-08T21:25:49.024Z,10.93
2023-03-08T21:28:21.932Z,10.97
2023-03-08T21:30:57.665Z,10.92
2023-03-08T21:33:35.311Z,11.04
2023-03-08T21:36:18.480Z,10.82
2023-03-08T21:38:53.783Z,10.76
2023-03-08T21:41:54.081Z,10.83
2023-03-08T21:44:33.399Z,10.90
2023-03-08T21:47:14.114Z,10.96
2023-03-08T21:49:46.301Z,11.13
2023-03-08T21:52:28.457Z,11.24
2023-03-08T21:55:05.506Z,11.27
2023-03-08T21:57:41.084Z,11.17
2023-03-08T22:00:19.920Z,11.23
2023-03-08T22:02:55.212Z,11.22
2023-03-08T22:05:35.932Z,11.16
2023-03-08T22:08:10.669Z,11.24
2023-03-08T22:10:40.234Z,10.97
2023-03-08T22:13:22.933Z,10.79
2023-03-08T22:15:52.758Z,10.81
2023-03-08T22:18:27.666Z,10.80
2023-03-08T22:20:58.160Z,10.70
2023-03-08T22:23:35.496Z,10.82
2023-03-08T22:26:09.601Z,10.87
2023-03-08T22:28:45.641Z,10.74
2023-03-08T22:31:17.672Z,10.76
2023-03-08T22:33:48.169Z,10.83
2023-03-08T22:36:26.677Z,10.81
2023-03-08T22:39:01.542Z,10.81
2023-03-08T22:41:33.459Z,10.90
2023-03-08T22:44:09.751Z,10.90
2023-03-08T22:46:40.455Z,10.95
2023-03-08T22:49:17.016Z,10.97
2023-03-08T22:51:59.106Z,11.02
2023-03-08T22:54:29.378Z,11.06
2023-03-08T22:56:58.912Z,11.07
2023-03-08T22:59:36.516Z,11.01
2023-03-08T23:02:10.148Z,11.01
2023-03-08T23:04:43.905Z,11.08
2023-03-08T23:07:29.756Z,11.09
2023-03-08T23:09:58.546Z,11.43
2023-03-08T23:12:29.647Z,11.37
2023-03-08T23:15:00.572Z,11.35
2023-03-08T23:17:39.215Z,11.25
2023-03-08T23:20:12.366Z,11.34
2023-03-08T23:22:45.549Z,11.26
2023-03-08T23:25:25.503Z,11.13
2023-03-08T23:27:56.132Z,11.13
2023-03-08T23:30:30.365Z,11.08
2023-03-08T23:33:00.130Z,11.10
2023-03-08T23:35:37.061Z,11.28
2023-03-08T23:38:07.896Z,11.30
2023-03-08T23:40:46.683Z,11.74
2023-03-08T23:43:20.846Z,11.61
2023-03-08T23:45:59.314Z,11.49
2023-03-08T23:48:28.866Z,11.53
2023-03-08T23:50:58.119Z,11.34
2023-03-08T23:53:35.923Z,11.33
2023-03-08T23:56:07.998Z,11.17
2023-03-08T23:58:50.545Z,11.09
